Columbia — WYR2092 — position and weather

sailwx.info

Track history (hours):
 
Tides and Currents Weather Stations Pressure Air Temp Water Temp Dewpoint Dewpoint Depression Visibility Wind Speed Wind Dir Waves Ship Positions

Columbia

Owner: ALASKA, STATE OF, ANCHORAGE, AK. More information available from US FCC via Universal Licensing System and Coast Guard Vessel Documentation Center.

Last reported at 2017-Aug-28 01:20 UTC. Time now 2017-Oct-20 19:52 UTC.
Position N 52°36' W 128°28'.
Warning: this ship's position is 53 days out of date.

Type: Ship. MMSI: 367144000.

Date/timePositionNaut miles runAvg speedWind from/ knotsBaromVisibWave heightAir tempDewpointWater temp
2017-Aug-28 01:20N 52°36' W 128°28'616.2
2017-Aug-28 00:59N 52°30' W 128°27'715.6
2017-Aug-28 00:30N 52°23' W 128°31'914.8
2017-Aug-27 23:56N 52°15' W 128°25'715.0
2017-Aug-27 23:30N 52°16' W 128°14'1311.3
2017-Aug-27 22:22N 52°12' W 127°54'514.7
2017-Aug-27 22:01N 52°07' W 127°53'815.1
2017-Aug-27 21:30N 51°60' W 127°56'918.1
2017-Aug-27 21:00N 51°51' W 127°55'918.6
2017-Aug-27 20:31N 51°41' W 127°55'917.9
2017-Aug-27 20:01N 51°33' W 127°52'714.6
2017-Aug-27 19:30N 51°25' W 127°51'815.3
2017-Aug-27 19:01N 51°18' W 127°53'714.2
2017-Aug-27 18:30N 51°11' W 127°51'815.4
2017-Aug-27 18:00N 51°05' W 127°43'815.6
2017-Aug-27 17:31N 50°59' W 127°35'816.1
2017-Aug-27 17:01N 50°55' W 127°24'816.0
2017-Aug-27 16:31N 50°51' W 127°13'815.6
2017-Aug-27 16:00N 50°46' W 127°03'815.5
2017-Aug-27 15:28N 50°41' W 126°53'715.1
2017-Aug-27 15:00N 50°36' W 126°44'3914.1
2017-Aug-27 12:14N 50°23' W 125°47'1015.4
2017-Aug-27 11:36N 50°21' W 125°32'315.6
2017-Aug-27 11:23N 50°20' W 125°27'511.7
2017-Aug-27 11:00N 50°16' W 125°24'714.9
2017-Aug-27 10:31N 50°09' W 125°21'613.0
2017-Aug-27 10:01N 50°04' W 125°15'713.8
2017-Aug-27 09:30N 49°58' W 125°10'815.9
2017-Aug-27 09:01N 49°53' W 125°01'816.7
2017-Aug-27 08:30N 49°47' W 124°51'816.8
2017-Aug-27 08:01N 49°41' W 124°42'917.1
2017-Aug-27 07:31N 49°35' W 124°33'917.1
2017-Aug-27 07:01N 49°29' W 124°24'816.2
2017-Aug-27 06:31N 49°25' W 124°13'815.1
2017-Aug-27 06:01N 49°23' W 124°02'714.2
2017-Aug-27 05:30N 49°22' W 123°51'713.9
2017-Aug-27 05:01N 49°18' W 123°42'714.6
2017-Aug-27 04:31N 49°12' W 123°34'714.6
2017-Aug-27 04:01N 49°07' W 123°26'714.6
2017-Aug-27 03:30N 49°02' W 123°18'714.7
2017-Aug-27 03:00N 48°57' W 123°10'714.4
2017-Aug-27 02:30N 48°53' W 123°01'714.8
2017-Aug-27 02:01N 48°48' W 122°53'714.7
2017-Aug-27 01:30N 48°43' W 122°44'714.6
2017-Aug-27 01:01N 48°38' W 122°36'612.3
2017-Aug-27 00:30N 48°43' W 122°31'1 1.6
2017-Aug-27 00:00N 48°44' W 122°32'0 0.5
2017-Aug-26 23:30N 48°44' W 122°33'1 0.8
2017-Aug-26 21:44N 48°43' W 122°31'0 0.0
2017-Aug-26 17:54N 48°43' W 122°31'0 0.2
2017-Aug-26 17:30N 48°43' W 122°31'3 7.0
2017-Aug-26 17:00N 48°41' W 122°34'612.2
2017-Aug-26 16:30N 48°36' W 122°39'612.9
2017-Aug-26 16:00N 48°30' W 122°43'714.1
2017-Aug-26 15:30N 48°24' W 122°49'714.6
2017-Aug-26 15:00N 48°20' W 122°58'1414.3
2017-Aug-26 14:01N 48°12' W 123°16'612.5
2017-Aug-26 13:30N 48°11' W 123°25'2 3.3
2017-Aug-26 13:00N 48°11' W 123°27'713.4
2017-Aug-26 12:30N 48°13' W 123°37'713.6
2017-Aug-26 12:00N 48°13' W 123°47'816.2
2017-Aug-26 11:30N 48°14' W 123°59'918.0
2017-Aug-26 11:00N 48°18' W 124°12'816.9
2017-Aug-26 10:30N 48°22' W 124°23'816.3
2017-Aug-26 10:01N 48°25' W 124°34'815.7
2017-Aug-26 09:31N 48°28' W 124°45'816.6
2017-Aug-26 09:00N 48°29' W 124°58'815.6
2017-Aug-26 08:30N 48°22' W 125°03'916.7
2017-Aug-26 08:00N 48°13' W 125°07'1517.1
2017-Aug-26 07:07N 47°59' W 125°13'217.0
2017-Aug-26 07:00N 47°57' W 125°14'816.5
2017-Aug-26 06:30N 47°49' W 125°15'816.6
2017-Aug-26 06:00N 47°41' W 125°11'2016.3
2017-Aug-26 04:46N 47°23' W 124°60'1127.9
2017-Aug-26 04:22N 47°12' W 124°54'1 3.5
2017-Aug-26 04:00N 47°11' W 124°53'815.5
2017-Aug-26 03:30N 47°04' W 124°49'815.9
2017-Aug-26 03:00N 46°57' W 124°45'816.4
2017-Aug-26 02:31N 46°49' W 124°40'714.8
2017-Aug-26 02:00N 46°43' W 124°35'816.3
2017-Aug-26 01:31N 46°35' W 124°32'816.6
2017-Aug-26 01:01N 46°27' W 124°27'918.1
2017-Aug-26 00:31N 46°19' W 124°21'917.1
2017-Aug-26 00:00N 46°13' W 124°12'816.7
2017-Aug-25 23:31N 46°15' W 124°00'714.6
2017-Aug-25 23:01N 46°12' W 123°51'510.9
2017-Aug-25 22:30N 46°14' W 123°43'816.1
2017-Aug-25 22:01N 46°16' W 123°32'612.3
2017-Aug-25 21:31N 46°11' W 123°26'713.8
2017-Aug-25 20:59N 46°09' W 123°16'715.1
2017-Aug-25 20:30N 46°10' W 123°06'815.7
2017-Aug-25 20:00N 46°06' W 122°56'713.1
2017-Aug-25 19:31N 46°00' W 122°51'713.2
2017-Aug-25 19:00N 45°54' W 122°48'714.3
2017-Aug-25 18:30N 45°47' W 122°46'713.1
2017-Aug-25 17:59N 45°40' W 122°46'0 0.3
2017-Aug-25 17:31N 45°40' W 122°46'3 5.3
2017-Aug-25 17:00N 45°37' W 122°47'4 8.4
2017-Aug-25 16:31N 45°34' W 122°44'1 1.1
2017-Aug-25 15:58N 45°34' W 122°43'0 0.0
2017-Aug-25 15:25N 45°34' W 122°43'0 0.0
2017-Aug-25 14:55N 45°34' W 122°43'0 0.0
2017-Aug-25 14:25N 45°34' W 122°43'0 0.0
2017-Aug-25 13:28N 45°34' W 122°43'0 0.0
2017-Aug-25 12:58N 45°34' W 122°43'0 0.0
2017-Aug-25 12:25N 45°34' W 122°43'0 0.0
2017-Aug-25 11:58N 45°34' W 122°43'0 0.0
2017-Aug-25 11:25N 45°34' W 122°43'0 0.0
2017-Aug-25 10:55N 45°34' W 122°43'0 0.0
2017-Aug-25 10:22N 45°34' W 122°43'0 0.0
2017-Aug-25 09:58N 45°34' W 122°43'0 0.0
2017-Aug-25 09:19N 45°34' W 122°43'0 0.0
2017-Aug-25 08:58N 45°34' W 122°43'0 0.0
2017-Aug-25 08:25N 45°34' W 122°43'0 0.0
2017-Aug-25 07:55N 45°34' W 122°43'0 0.0
2017-Aug-25 07:28N 45°34' W 122°43'0 0.0
2017-Aug-25 06:55N 45°34' W 122°43'0 0.0
2017-Aug-25 06:25N 45°34' W 122°43'0 0.0
2017-Aug-25 05:58N 45°34' W 122°43'0 0.0
2017-Aug-25 05:28N 45°34' W 122°43'0 0.0
2017-Aug-25 04:55N 45°34' W 122°43'0 0.0
2017-Aug-25 04:25N 45°34' W 122°43'0 0.0
2017-Aug-25 03:58N 45°34' W 122°43'0 0.0
2017-Aug-25 03:25N 45°34' W 122°43'0 0.0
2017-Aug-25 02:55N 45°34' W 122°43'0 0.0
2017-Aug-25 02:25N 45°34' W 122°43'0 0.0
2017-Aug-25 01:55N 45°34' W 122°43'0 0.0
2017-Aug-25 01:25N 45°34' W 122°43'0 0.0
2017-Aug-25 00:58N 45°34' W 122°43'0 0.0
2017-Aug-25 00:25N 45°34' W 122°43'0 0.0
2017-Aug-24 23:55N 45°34' W 122°43'0 0.0
2017-Aug-24 23:28N 45°34' W 122°43'0 0.0
2017-Aug-24 22:58N 45°34' W 122°43'0 0.0
2017-Aug-24 22:25N 45°34' W 122°43'0 0.0
2017-Aug-24 21:58N 45°34' W 122°43'0 0.0
2017-Aug-24 21:25N 45°34' W 122°43'0 0.0
2017-Aug-24 20:55N 45°34' W 122°43'0 0.0
2017-Aug-24 20:25N 45°34' W 122°43'0 0.0
2017-Aug-24 19:58N 45°34' W 122°43'0 0.0
2017-Aug-24 19:28N 45°34' W 122°43'0 0.0
2017-Aug-24 18:55N 45°34' W 122°43'0 0.0
2017-Aug-24 18:25N 45°34' W 122°43'0 0.0
2017-Aug-24 17:55N 45°34' W 122°43'0 0.0
2017-Aug-24 17:25N 45°34' W 122°43'0 0.0
2017-Aug-24 16:55N 45°34' W 122°43'0 0.0
2017-Aug-24 16:30N 45°34' W 122°43'0 0.0
2017-Aug-24 16:00N 45°34' W 122°43'0 0.0
2017-Aug-24 15:30N 45°34' W 122°43'0 0.0
2017-Aug-24 15:00N 45°34' W 122°43'0 0.0
2017-Aug-24 14:30N 45°34' W 122°43'0 0.0
2017-Aug-24 14:00N 45°34' W 122°43'0 0.0
2017-Aug-24 13:30N 45°34' W 122°43'0 0.0
2017-Aug-24 13:00N 45°34' W 122°43'0 0.0
2017-Aug-24 12:30N 45°34' W 122°43'0 0.0
2017-Aug-24 12:00N 45°34' W 122°43'0 0.0
2017-Aug-24 11:30N 45°34' W 122°43'0 0.0
2017-Aug-24 11:00N 45°34' W 122°43'0 0.0
2017-Aug-24 10:30N 45°34' W 122°43'0 0.0
2017-Aug-24 10:00N 45°34' W 122°43'0 0.0
2017-Aug-24 09:30N 45°34' W 122°43'0 0.0
2017-Aug-24 09:00N 45°34' W 122°43'0 0.0
2017-Aug-24 08:27N 45°34' W 122°43'0 0.0
2017-Aug-24 08:00N 45°34' W 122°43'0 0.0
2017-Aug-24 07:24N 45°34' W 122°43'0 0.0
2017-Aug-24 07:00N 45°34' W 122°43'0 0.0
2017-Aug-24 06:30N 45°34' W 122°43'0 0.0
2017-Aug-24 06:00N 45°34' W 122°43'0 0.0
2017-Aug-24 05:24N 45°34' W 122°43'0 0.0
2017-Aug-24 05:00N 45°34' W 122°43'0 0.0
2017-Aug-24 04:30N 45°34' W 122°43'0 0.0
2017-Aug-24 04:00N 45°34' W 122°43'0 0.0
2017-Aug-24 03:30N 45°34' W 122°43'0 0.0
2017-Aug-24 03:00N 45°34' W 122°43'0 0.0
2017-Aug-24 02:30N 45°34' W 122°43'0 0.0
2017-Aug-24 02:00N 45°34' W 122°43'0 0.0
2017-Aug-24 01:30N 45°34' W 122°43'0 0.0
2017-Aug-24 01:00N 45°34' W 122°43'0 0.0
2017-Aug-24 00:30N 45°34' W 122°43'0 0.0
2017-Aug-24 00:00N 45°34' W 122°43'0 0.0
2017-Aug-23 23:30N 45°34' W 122°43'0 0.0
2017-Aug-23 23:00N 45°34' W 122°43'0 0.0
2017-Aug-23 22:30N 45°34' W 122°43'0 0.0
2017-Aug-23 22:00N 45°34' W 122°43'0 0.0
2017-Aug-23 21:30N 45°34' W 122°43'0 0.0
2017-Aug-23 21:00N 45°34' W 122°43'0 0.0
2017-Aug-23 20:30N 45°34' W 122°43'0 0.0
2017-Aug-23 20:00N 45°34' W 122°43'0 0.0
2017-Aug-23 19:30N 45°34' W 122°43'0 0.0
2017-Aug-23 19:00N 45°34' W 122°43'0 0.0
2017-Aug-23 18:30N 45°34' W 122°43'0 0.0
2017-Aug-23 18:00N 45°34' W 122°43'0 0.0
2017-Aug-23 17:24N 45°34' W 122°43'0 0.0
2017-Aug-23 17:00N 45°34' W 122°43'0 0.0
2017-Aug-23 16:30N 45°34' W 122°43'0 0.0
2017-Aug-23 16:00N 45°34' W 122°43'0 0.0
2017-Aug-23 15:30N 45°34' W 122°43'0 0.0
2017-Aug-23 15:00N 45°34' W 122°43'0 0.0
2017-Aug-23 14:00N 45°34' W 122°43'0 0.0
2017-Aug-23 13:30N 45°34' W 122°43'0 0.0
2017-Aug-23 13:00N 45°34' W 122°43'0 0.0
2017-Aug-23 12:30N 45°34' W 122°43'0 0.0
2017-Aug-23 12:00N 45°34' W 122°43'0 0.0
2017-Aug-23 11:30N 45°34' W 122°43'0 0.0
2017-Aug-23 11:00N 45°34' W 122°43'0 0.0
2017-Aug-23 10:30N 45°34' W 122°43'0 0.0
2017-Aug-23 10:00N 45°34' W 122°43'0 0.0
2017-Aug-23 09:30N 45°34' W 122°43'0 0.0
2017-Aug-23 09:00N 45°34' W 122°43'0 0.0
2017-Aug-23 08:30N 45°34' W 122°43'0 0.0
2017-Aug-23 08:00N 45°34' W 122°43'0 0.0
2017-Aug-23 07:30N 45°34' W 122°43'0 0.0
2017-Aug-23 07:00N 45°34' W 122°43'0 0.0
2017-Aug-23 06:30N 45°34' W 122°43'0 0.0
2017-Aug-23 05:57N 45°34' W 122°43'0 0.0
2017-Aug-23 05:30N 45°34' W 122°43'0 0.0
2017-Aug-23 05:00N 45°34' W 122°43'0 0.0
2017-Aug-23 04:30N 45°34' W 122°43'0 0.0
2017-Aug-23 04:00N 45°34' W 122°43'0 0.0
2017-Aug-23 03:27N 45°34' W 122°43'0 0.0
2017-Aug-23 03:00N 45°34' W 122°43'0 0.0
2017-Aug-23 02:30N 45°34' W 122°43'0 0.0
2017-Aug-23 02:00N 45°34' W 122°43'0 0.0
2017-Aug-23 01:27N 45°34' W 122°43'0 0.0
2017-Aug-23 00:57N 45°34' W 122°43'0 0.0
2017-Aug-23 00:27N 45°34' W 122°43'0 0.0
2017-Aug-22 23:54N 45°34' W 122°43'0 0.0
2017-Aug-22 23:24N 45°34' W 122°43'0 0.0
2017-Aug-22 23:00N 45°34' W 122°43'0 0.0
2017-Aug-22 22:24N 45°34' W 122°43'0 0.0
2017-Aug-22 22:00N 45°34' W 122°43'0 0.0
2017-Aug-22 21:27N 45°34' W 122°43'0 0.0
2017-Aug-22 20:51N 45°34' W 122°43'0 0.0
2017-Aug-22 20:21N 45°34' W 122°43'0 0.0
2017-Aug-22 19:57N 45°34' W 122°43'0 0.0
2017-Aug-22 19:30N 45°34' W 122°43'0 0.0
2017-Aug-22 19:00N 45°34' W 122°43'0 0.0
2017-Aug-22 18:30N 45°34' W 122°43'0 0.0
2017-Aug-22 17:54N 45°34' W 122°43'0 0.0
2017-Aug-22 17:30N 45°34' W 122°43'0 0.0
2017-Aug-22 16:57N 45°34' W 122°43'0 0.0
2017-Aug-22 16:30N 45°34' W 122°43'0 0.0
2017-Aug-22 15:57N 45°34' W 122°43'0 0.0
2017-Aug-22 15:27N 45°34' W 122°43'0 0.0
2017-Aug-22 14:51N 45°34' W 122°43'0 0.0
2017-Aug-22 14:30N 45°34' W 122°43'0 0.0
2017-Aug-22 14:00N 45°34' W 122°43'0 0.0
2017-Aug-22 13:30N 45°34' W 122°43'0 0.0
2017-Aug-22 13:00N 45°34' W 122°43'0 0.0
2017-Aug-22 12:30N 45°34' W 122°43'0 0.0
2017-Aug-22 11:54N 45°34' W 122°43'0 0.0
2017-Aug-22 11:30N 45°34' W 122°43'0 0.0
2017-Aug-22 11:00N 45°34' W 122°43'0 0.0
2017-Aug-22 10:30N 45°34' W 122°43'0 0.0
2017-Aug-22 09:57N 45°34' W 122°43'0 0.0
2017-Aug-22 09:30N 45°34' W 122°43'0 0.0
2017-Aug-22 09:00N 45°34' W 122°43'0 0.0
2017-Aug-22 08:30N 45°34' W 122°43'0 0.0
2017-Aug-22 08:00N 45°34' W 122°43'0 0.0
2017-Aug-22 07:30N 45°34' W 122°43'0 0.0
2017-Aug-22 07:00N 45°34' W 122°43'0 0.0
2017-Aug-22 06:30N 45°34' W 122°43'0 0.0
2017-Aug-22 06:00N 45°34' W 122°43'0 0.0
2017-Aug-22 05:30N 45°34' W 122°43'0 0.0
2017-Aug-22 05:00N 45°34' W 122°43'0 0.0
2017-Aug-22 04:24N 45°34' W 122°43'0 0.0
2017-Aug-22 04:00N 45°34' W 122°43'0 0.0
2017-Aug-22 03:24N 45°34' W 122°43'0 0.0
2017-Aug-22 03:00N 45°34' W 122°43'0 0.0
2017-Aug-22 02:27N 45°34' W 122°43'0 0.0
2017-Aug-22 02:00N 45°34' W 122°43'0 0.0
2017-Aug-22 01:30N 45°34' W 122°43'0 0.0
2017-Aug-22 01:00N 45°34' W 122°43'0 0.0
2017-Aug-22 00:30N 45°34' W 122°43'0 0.0
2017-Aug-21 23:54N 45°34' W 122°43'0 0.0
2017-Aug-21 23:30N 45°34' W 122°43'0 0.0
2017-Aug-21 22:51N 45°34' W 122°43'0 0.0
2017-Aug-21 22:30N 45°34' W 122°43'0 0.0
2017-Aug-21 21:57N 45°34' W 122°43'0 0.0
2017-Aug-21 21:30N 45°34' W 122°43'0 0.0
2017-Aug-21 20:57N 45°34' W 122°43'0 0.0
2017-Aug-21 20:27N 45°34' W 122°43'0 0.0
2017-Aug-21 20:00N 45°34' W 122°43'0 0.0
2017-Aug-21 19:30N 45°34' W 122°43'0 0.0
2017-Aug-21 18:57N 45°34' W 122°43'0 0.0
2017-Aug-21 18:30N 45°34' W 122°43'0 0.0
2017-Aug-21 18:00N 45°34' W 122°43'0 0.0
2017-Aug-21 17:24N 45°34' W 122°43'0 0.0
2017-Aug-21 16:57N 45°34' W 122°43'0 0.0
2017-Aug-21 16:21N 45°34' W 122°43'0 0.0
2017-Aug-21 16:00N 45°34' W 122°43'0 0.0
2017-Aug-21 15:30N 45°34' W 122°43'0 0.0
2017-Aug-21 14:51N 45°34' W 122°43'0 0.0
2017-Aug-21 14:30N 45°34' W 122°43'0 0.0
2017-Aug-21 14:00N 45°34' W 122°43'0 0.0
2017-Aug-21 13:24N 45°34' W 122°43'0 0.0
2017-Aug-21 13:00N 45°34' W 122°43'0 0.0
2017-Aug-21 12:27N 45°34' W 122°43'0 0.0
2017-Aug-21 11:51N 45°34' W 122°43'0 0.0
2017-Aug-21 11:30N 45°34' W 122°43'0 0.0
2017-Aug-21 10:54N 45°34' W 122°43'0 0.0
2017-Aug-21 10:27N 45°34' W 122°43'0 0.0
2017-Aug-21 09:54N 45°34' W 122°43'0 0.0
2017-Aug-21 09:30N 45°34' W 122°43'0 0.0
2017-Aug-21 08:51N 45°34' W 122°43'0 0.0
2017-Aug-21 08:21N 45°34' W 122°43'0 0.0
2017-Aug-21 07:51N 45°34' W 122°43'0 0.0
2017-Aug-21 07:30N 45°34' W 122°43'0 0.0
2017-Aug-21 07:00N 45°34' W 122°43'0 0.0
2017-Aug-21 06:24N 45°34' W 122°43'0 0.0
2017-Aug-21 06:00N 45°34' W 122°43'0 0.0
2017-Aug-21 05:12N 45°34' W 122°43'0 0.0
2017-Aug-21 04:51N 45°34' W 122°43'0 0.0
2017-Aug-21 04:30N 45°34' W 122°43'0 0.0
2017-Aug-21 03:54N 45°34' W 122°43'0 0.0
2017-Aug-21 03:27N 45°34' W 122°43'0 0.0
2017-Aug-21 02:54N 45°34' W 122°43'0 0.0
2017-Aug-21 02:30N 45°34' W 122°43'0 0.0
2017-Aug-21 01:57N 45°34' W 122°43'0 0.0
2017-Aug-21 01:30N 45°34' W 122°43'0 0.0
2017-Aug-21 01:00N 45°34' W 122°43'0 0.0
2017-Aug-21 00:30N 45°34' W 122°43'0 0.0
2017-Aug-20 23:51N 45°34' W 122°43'0 0.0
2017-Aug-20 23:27N 45°34' W 122°43'0 0.0
2017-Aug-20 23:00N 45°34' W 122°43'0 0.0
2017-Aug-20 22:30N 45°34' W 122°43'0 0.0
2017-Aug-20 21:57N 45°34' W 122°43'0 0.0
2017-Aug-20 21:24N 45°34' W 122°43'0 0.0
2017-Aug-20 20:51N 45°34' W 122°43'0 0.0
2017-Aug-20 20:30N 45°34' W 122°43'0 0.0
2017-Aug-20 19:57N 45°34' W 122°43'0 0.0
2017-Aug-20 19:30N 45°34' W 122°43'0 0.0
2017-Aug-20 19:00N 45°34' W 122°43'0 0.0
2017-Aug-20 18:30N 45°34' W 122°43'0 0.0
2017-Aug-20 17:54N 45°34' W 122°43'0 0.0
2017-Aug-20 17:30N 45°34' W 122°43'0 0.0
2017-Aug-20 17:00N 45°34' W 122°43'0 0.0
2017-Aug-20 16:30N 45°34' W 122°43'0 0.0
2017-Aug-20 16:00N 45°34' W 122°43'0 0.0
2017-Aug-20 15:27N 45°34' W 122°43'0 0.0
2017-Aug-20 15:00N 45°34' W 122°43'0 0.0
2017-Aug-20 14:27N 45°34' W 122°43'0 0.0
2017-Aug-20 13:57N 45°34' W 122°43'0 0.0
2017-Aug-20 13:30N 45°34' W 122°43'0 0.0
2017-Aug-20 13:00N 45°34' W 122°43'0 0.0
2017-Aug-20 12:24N 45°34' W 122°43'0 0.0
2017-Aug-20 12:00N 45°34' W 122°43'0 0.0
2017-Aug-20 11:27N 45°34' W 122°43'0 0.0
2017-Aug-20 11:00N 45°34' W 122°43'0 0.0
2017-Aug-20 10:30N 45°34' W 122°43'0 0.0
2017-Aug-20 09:57N 45°34' W 122°43'0 0.0
2017-Aug-20 09:30N 45°34' W 122°43'0 0.0
2017-Aug-20 09:00N 45°34' W 122°43'0 0.0
2017-Aug-20 08:27N 45°34' W 122°43'0 0.0
2017-Aug-20 08:00N 45°34' W 122°43'0 0.0
2017-Aug-20 07:30N 45°34' W 122°43'0 0.0
2017-Aug-20 07:00N 45°34' W 122°43'0 0.0
2017-Aug-20 06:30N 45°34' W 122°43'0 0.0
2017-Aug-20 06:00N 45°34' W 122°43'0 0.0
2017-Aug-20 05:27N 45°34' W 122°43'0 0.0
2017-Aug-20 04:57N 45°34' W 122°43'0 0.0
2017-Aug-20 04:27N 45°34' W 122°43'0 0.0
2017-Aug-20 04:00N 45°34' W 122°43'0 0.0
2017-Aug-20 03:30N 45°34' W 122°43'0 0.0
2017-Aug-20 03:00N 45°34' W 122°43'0 0.0
2017-Aug-20 02:27N 45°34' W 122°43'0 0.0
2017-Aug-20 02:00N 45°34' W 122°43'0 0.0
2017-Aug-20 01:30N 45°34' W 122°43'0 0.0
2017-Aug-20 00:57N 45°34' W 122°43'0 0.0
2017-Aug-20 00:30N 45°34' W 122°43'0 0.0
2017-Aug-19 23:57N 45°34' W 122°43'0 0.0
2017-Aug-19 23:30N 45°34' W 122°43'0 0.0
2017-Aug-19 22:57N 45°34' W 122°43'0 0.0
2017-Aug-19 22:27N 45°34' W 122°43'0 0.0
2017-Aug-19 21:54N 45°34' W 122°43'0 0.0
2017-Aug-19 21:30N 45°34' W 122°43'0 0.0
2017-Aug-19 20:51N 45°34' W 122°43'0 0.0
2017-Aug-19 20:24N 45°34' W 122°43'0 0.0
2017-Aug-19 20:00N 45°34' W 122°43'0 0.0
2017-Aug-19 19:30N 45°34' W 122°43'0 0.0
2017-Aug-19 19:00N 45°34' W 122°43'0 0.0
2017-Aug-19 18:30N 45°34' W 122°43'0 0.0
2017-Aug-19 18:00N 45°34' W 122°43'0 0.0
2017-Aug-19 17:30N 45°34' W 122°43'0 0.0
2017-Aug-19 17:00N 45°34' W 122°43'0 0.0
2017-Aug-19 16:30N 45°34' W 122°43'0 0.0
2017-Aug-19 16:00N 45°34' W 122°43'0 0.0
2017-Aug-19 15:30N 45°34' W 122°43'0 0.0
2017-Aug-19 15:00N 45°34' W 122°43'0 0.0
2017-Aug-19 14:00N 45°34' W 122°43'0 0.0
2017-Aug-19 13:30N 45°34' W 122°43'0 0.0
2017-Aug-19 13:00N 45°34' W 122°43'0 0.0
2017-Aug-19 12:30N 45°34' W 122°43'0 0.0
2017-Aug-19 12:00N 45°34' W 122°43'0 0.0
2017-Aug-19 11:30N 45°34' W 122°43'0 0.0
2017-Aug-19 11:00N 45°34' W 122°43'0 0.0
2017-Aug-19 10:30N 45°34' W 122°43'0 0.0
2017-Aug-19 10:00N 45°34' W 122°43'0 0.0
2017-Aug-19 09:30N 45°34' W 122°43'0 0.0
2017-Aug-19 09:00N 45°34' W 122°43'0 0.0
2017-Aug-19 08:30N 45°34' W 122°43'0 0.0
2017-Aug-19 08:00N 45°34' W 122°43'0 0.0
2017-Aug-19 07:30N 45°34' W 122°43'0 0.0
2017-Aug-19 07:00N 45°34' W 122°43'0 0.0
2017-Aug-19 06:30N 45°34' W 122°43'0 0.0
2017-Aug-19 06:00N 45°34' W 122°43'0 0.0
2017-Aug-19 05:30N 45°34' W 122°43'0 0.0
2017-Aug-19 05:00N 45°34' W 122°43'0 0.0
2017-Aug-19 04:30N 45°34' W 122°43'0 0.0
2017-Aug-19 04:00N 45°34' W 122°43'0 0.0
2017-Aug-19 03:30N 45°34' W 122°43'0 0.0
2017-Aug-19 03:00N 45°34' W 122°43'0 0.0
2017-Aug-19 02:30N 45°34' W 122°43'0 0.0
2017-Aug-19 02:00N 45°34' W 122°43'0 0.0
2017-Aug-19 01:30N 45°34' W 122°43'0 0.0
2017-Aug-19 01:00N 45°34' W 122°43'0 0.0
2017-Aug-19 00:30N 45°34' W 122°43'0 0.0
2017-Aug-19 00:00N 45°34' W 122°43'0 0.0
2017-Aug-18 23:30N 45°34' W 122°43'0 0.0
2017-Aug-18 23:00N 45°34' W 122°43'0 0.0
2017-Aug-18 22:24N 45°34' W 122°43'0 0.0
2017-Aug-18 22:00N 45°34' W 122°43'0 0.0
2017-Aug-18 21:30N 45°34' W 122°43'0 0.0
2017-Aug-18 21:00N 45°34' W 122°43'0 0.0
2017-Aug-18 20:30N 45°34' W 122°43'0 0.0
2017-Aug-18 20:00N 45°34' W 122°43'0 0.0
2017-Aug-18 19:30N 45°34' W 122°43'0 0.0
2017-Aug-18 19:00N 45°34' W 122°43'0 0.0
2017-Aug-18 18:30N 45°34' W 122°43'0 0.0
2017-Aug-18 18:00N 45°34' W 122°43'0 0.0
2017-Aug-18 17:30N 45°34' W 122°43'0 0.0
2017-Aug-18 17:00N 45°34' W 122°43'0 0.0
2017-Aug-18 16:30N 45°34' W 122°43'0 0.0
2017-Aug-18 16:00N 45°34' W 122°43'0 0.0
2017-Aug-18 15:30N 45°34' W 122°43'0 0.0
2017-Aug-18 15:00N 45°34' W 122°43'0 0.0
2017-Aug-18 14:00N 45°34' W 122°43'0 0.0
2017-Aug-18 13:30N 45°34' W 122°43'0 0.0
2017-Aug-18 13:00N 45°34' W 122°43'0 0.0
2017-Aug-18 12:30N 45°34' W 122°43'0 0.0
2017-Aug-18 11:57N 45°34' W 122°43'0 0.0
2017-Aug-18 11:30N 45°34' W 122°43'0 0.0
2017-Aug-18 11:00N 45°34' W 122°43'0 0.0
2017-Aug-18 10:24N 45°34' W 122°43'0 0.0
2017-Aug-18 10:00N 45°34' W 122°43'0 0.0
2017-Aug-18 09:30N 45°34' W 122°43'0 0.0
2017-Aug-18 08:57N 45°34' W 122°43'0 0.0
2017-Aug-18 08:27N 45°34' W 122°43'0 0.0
2017-Aug-18 08:00N 45°34' W 122°43'0 0.0
2017-Aug-18 07:27N 45°34' W 122°43'0 0.0
2017-Aug-18 06:57N 45°34' W 122°43'0 0.0
2017-Aug-18 06:30N 45°34' W 122°43'0 0.0
2017-Aug-18 06:00N 45°34' W 122°43'0 0.0
2017-Aug-18 05:30N 45°34' W 122°43'0 0.0
2017-Aug-18 04:57N 45°34' W 122°43'0 0.0
2017-Aug-18 04:06N 45°34' W 122°43'0 0.0
2017-Aug-18 03:12N 45°34' W 122°43'0 0.0
2017-Aug-18 03:00N 45°34' W 122°43'0 0.0
2017-Aug-18 02:27N 45°34' W 122°43'0 0.0
2017-Aug-18 01:51N 45°34' W 122°43'0 0.0
2017-Aug-18 01:30N 45°34' W 122°43'  
Track history (hours):
 
Tides and Currents Weather Stations Pressure Air Temp Water Temp Dewpoint Dewpoint Depression Visibility Wind Speed Wind Dir Waves Ship Positions

Columbia

Owner: ALASKA, STATE OF, ANCHORAGE, AK. More information available from US FCC via Universal Licensing System and Coast Guard Vessel Documentation Center.

Last reported at 2017-Aug-28 01:20 UTC. Time now 2017-Oct-20 19:52 UTC.
Position N 52°36' W 128°28'.
Warning: this ship's position is 53 days out of date.

Type: Ship. MMSI: 367144000.

Date/timePositionNaut miles runAvg speedWind from/ knotsBaromVisibWave heightAir tempDewpointWater temp
2017-Aug-28 01:20N 52°36' W 128°28'616.2
2017-Aug-28 00:59N 52°30' W 128°27'715.6
2017-Aug-28 00:30N 52°23' W 128°31'914.8
2017-Aug-27 23:56N 52°15' W 128°25'715.0
2017-Aug-27 23:30N 52°16' W 128°14'1311.3
2017-Aug-27 22:22N 52°12' W 127°54'514.7
2017-Aug-27 22:01N 52°07' W 127°53'815.1
2017-Aug-27 21:30N 51°60' W 127°56'918.1
2017-Aug-27 21:00N 51°51' W 127°55'918.6
2017-Aug-27 20:31N 51°41' W 127°55'917.9
2017-Aug-27 20:01N 51°33' W 127°52'714.6
2017-Aug-27 19:30N 51°25' W 127°51'815.3
2017-Aug-27 19:01N 51°18' W 127°53'714.2
2017-Aug-27 18:30N 51°11' W 127°51'815.4
2017-Aug-27 18:00N 51°05' W 127°43'815.6
2017-Aug-27 17:31N 50°59' W 127°35'816.1
2017-Aug-27 17:01N 50°55' W 127°24'816.0
2017-Aug-27 16:31N 50°51' W 127°13'815.6
2017-Aug-27 16:00N 50°46' W 127°03'815.5
2017-Aug-27 15:28N 50°41' W 126°53'715.1
2017-Aug-27 15:00N 50°36' W 126°44'3914.1
2017-Aug-27 12:14N 50°23' W 125°47'1015.4
2017-Aug-27 11:36N 50°21' W 125°32'315.6
2017-Aug-27 11:23N 50°20' W 125°27'511.7
2017-Aug-27 11:00N 50°16' W 125°24'714.9
2017-Aug-27 10:31N 50°09' W 125°21'613.0
2017-Aug-27 10:01N 50°04' W 125°15'713.8
2017-Aug-27 09:30N 49°58' W 125°10'815.9
2017-Aug-27 09:01N 49°53' W 125°01'816.7
2017-Aug-27 08:30N 49°47' W 124°51'816.8
2017-Aug-27 08:01N 49°41' W 124°42'917.1
2017-Aug-27 07:31N 49°35' W 124°33'917.1
2017-Aug-27 07:01N 49°29' W 124°24'816.2
2017-Aug-27 06:31N 49°25' W 124°13'815.1
2017-Aug-27 06:01N 49°23' W 124°02'714.2
2017-Aug-27 05:30N 49°22' W 123°51'713.9
2017-Aug-27 05:01N 49°18' W 123°42'714.6
2017-Aug-27 04:31N 49°12' W 123°34'714.6
2017-Aug-27 04:01N 49°07' W 123°26'714.6
2017-Aug-27 03:30N 49°02' W 123°18'714.7
2017-Aug-27 03:00N 48°57' W 123°10'714.4
2017-Aug-27 02:30N 48°53' W 123°01'714.8
2017-Aug-27 02:01N 48°48' W 122°53'714.7
2017-Aug-27 01:30N 48°43' W 122°44'714.6
2017-Aug-27 01:01N 48°38' W 122°36'612.3
2017-Aug-27 00:30N 48°43' W 122°31'1 1.6
2017-Aug-27 00:00N 48°44' W 122°32'0 0.5
2017-Aug-26 23:30N 48°44' W 122°33'1 0.8
2017-Aug-26 21:44N 48°43' W 122°31'0 0.0
2017-Aug-26 17:54N 48°43' W 122°31'0 0.2
2017-Aug-26 17:30N 48°43' W 122°31'3 7.0
2017-Aug-26 17:00N 48°41' W 122°34'612.2
2017-Aug-26 16:30N 48°36' W 122°39'612.9
2017-Aug-26 16:00N 48°30' W 122°43'714.1
2017-Aug-26 15:30N 48°24' W 122°49'714.6
2017-Aug-26 15:00N 48°20' W 122°58'1414.3
2017-Aug-26 14:01N 48°12' W 123°16'612.5
2017-Aug-26 13:30N 48°11' W 123°25'2 3.3
2017-Aug-26 13:00N 48°11' W 123°27'713.4
2017-Aug-26 12:30N 48°13' W 123°37'713.6
2017-Aug-26 12:00N 48°13' W 123°47'816.2
2017-Aug-26 11:30N 48°14' W 123°59'918.0
2017-Aug-26 11:00N 48°18' W 124°12'816.9
2017-Aug-26 10:30N 48°22' W 124°23'816.3
2017-Aug-26 10:01N 48°25' W 124°34'815.7
2017-Aug-26 09:31N 48°28' W 124°45'816.6
2017-Aug-26 09:00N 48°29' W 124°58'815.6
2017-Aug-26 08:30N 48°22' W 125°03'916.7
2017-Aug-26 08:00N 48°13' W 125°07'1517.1
2017-Aug-26 07:07N 47°59' W 125°13'217.0
2017-Aug-26 07:00N 47°57' W 125°14'816.5
2017-Aug-26 06:30N 47°49' W 125°15'816.6
2017-Aug-26 06:00N 47°41' W 125°11'2016.3
2017-Aug-26 04:46N 47°23' W 124°60'1127.9
2017-Aug-26 04:22N 47°12' W 124°54'1 3.5
2017-Aug-26 04:00N 47°11' W 124°53'815.5
2017-Aug-26 03:30N 47°04' W 124°49'815.9
2017-Aug-26 03:00N 46°57' W 124°45'816.4
2017-Aug-26 02:31N 46°49' W 124°40'714.8
2017-Aug-26 02:00N 46°43' W 124°35'816.3
2017-Aug-26 01:31N 46°35' W 124°32'816.6
2017-Aug-26 01:01N 46°27' W 124°27'918.1
2017-Aug-26 00:31N 46°19' W 124°21'917.1
2017-Aug-26 00:00N 46°13' W 124°12'816.7
2017-Aug-25 23:31N 46°15' W 124°00'714.6
2017-Aug-25 23:01N 46°12' W 123°51'510.9
2017-Aug-25 22:30N 46°14' W 123°43'816.1
2017-Aug-25 22:01N 46°16' W 123°32'612.3
2017-Aug-25 21:31N 46°11' W 123°26'713.8
2017-Aug-25 20:59N 46°09' W 123°16'715.1
2017-Aug-25 20:30N 46°10' W 123°06'815.7
2017-Aug-25 20:00N 46°06' W 122°56'713.1
2017-Aug-25 19:31N 46°00' W 122°51'713.2
2017-Aug-25 19:00N 45°54' W 122°48'714.3
2017-Aug-25 18:30N 45°47' W 122°46'713.1
2017-Aug-25 17:59N 45°40' W 122°46'0 0.3
2017-Aug-25 17:31N 45°40' W 122°46'3 5.3
2017-Aug-25 17:00N 45°37' W 122°47'4 8.4
2017-Aug-25 16:31N 45°34' W 122°44'1 1.1
2017-Aug-25 15:58N 45°34' W 122°43'0 0.0
2017-Aug-25 15:25N 45°34' W 122°43'0 0.0
2017-Aug-25 14:55N 45°34' W 122°43'0 0.0
2017-Aug-25 14:25N 45°34' W 122°43'0 0.0
2017-Aug-25 13:28N 45°34' W 122°43'0 0.0
2017-Aug-25 12:58N 45°34' W 122°43'0 0.0
2017-Aug-25 12:25N 45°34' W 122°43'0 0.0
2017-Aug-25 11:58N 45°34' W 122°43'0 0.0
2017-Aug-25 11:25N 45°34' W 122°43'0 0.0
2017-Aug-25 10:55N 45°34' W 122°43'0 0.0
2017-Aug-25 10:22N 45°34' W 122°43'0 0.0
2017-Aug-25 09:58N 45°34' W 122°43'0 0.0
2017-Aug-25 09:19N 45°34' W 122°43'0 0.0
2017-Aug-25 08:58N 45°34' W 122°43'0 0.0
2017-Aug-25 08:25N 45°34' W 122°43'0 0.0
2017-Aug-25 07:55N 45°34' W 122°43'0 0.0
2017-Aug-25 07:28N 45°34' W 122°43'0 0.0
2017-Aug-25 06:55N 45°34' W 122°43'0 0.0
2017-Aug-25 06:25N 45°34' W 122°43'0 0.0
2017-Aug-25 05:58N 45°34' W 122°43'0 0.0
2017-Aug-25 05:28N 45°34' W 122°43'0 0.0
2017-Aug-25 04:55N 45°34' W 122°43'0 0.0
2017-Aug-25 04:25N 45°34' W 122°43'0 0.0
2017-Aug-25 03:58N 45°34' W 122°43'0 0.0
2017-Aug-25 03:25N 45°34' W 122°43'0 0.0
2017-Aug-25 02:55N 45°34' W 122°43'0 0.0
2017-Aug-25 02:25N 45°34' W 122°43'0 0.0
2017-Aug-25 01:55N 45°34' W 122°43'0 0.0
2017-Aug-25 01:25N 45°34' W 122°43'0 0.0
2017-Aug-25 00:58N 45°34' W 122°43'0 0.0
2017-Aug-25 00:25N 45°34' W 122°43'0 0.0
2017-Aug-24 23:55N 45°34' W 122°43'0 0.0
2017-Aug-24 23:28N 45°34' W 122°43'0 0.0
2017-Aug-24 22:58N 45°34' W 122°43'0 0.0
2017-Aug-24 22:25N 45°34' W 122°43'0 0.0
2017-Aug-24 21:58N 45°34' W 122°43'0 0.0
2017-Aug-24 21:25N 45°34' W 122°43'0 0.0
2017-Aug-24 20:55N 45°34' W 122°43'0 0.0
2017-Aug-24 20:25N 45°34' W 122°43'0 0.0
2017-Aug-24 19:58N 45°34' W 122°43'0 0.0
2017-Aug-24 19:28N 45°34' W 122°43'0 0.0
2017-Aug-24 18:55N 45°34' W 122°43'0 0.0
2017-Aug-24 18:25N 45°34' W 122°43'0 0.0
2017-Aug-24 17:55N 45°34' W 122°43'0 0.0
2017-Aug-24 17:25N 45°34' W 122°43'0 0.0
2017-Aug-24 16:55N 45°34' W 122°43'0 0.0
2017-Aug-24 16:30N 45°34' W 122°43'0 0.0
2017-Aug-24 16:00N 45°34' W 122°43'0 0.0
2017-Aug-24 15:30N 45°34' W 122°43'0 0.0
2017-Aug-24 15:00N 45°34' W 122°43'0 0.0
2017-Aug-24 14:30N 45°34' W 122°43'0 0.0
2017-Aug-24 14:00N 45°34' W 122°43'0 0.0
2017-Aug-24 13:30N 45°34' W 122°43'0 0.0
2017-Aug-24 13:00N 45°34' W 122°43'0 0.0
2017-Aug-24 12:30N 45°34' W 122°43'0 0.0
2017-Aug-24 12:00N 45°34' W 122°43'0 0.0
2017-Aug-24 11:30N 45°34' W 122°43'0 0.0
2017-Aug-24 11:00N 45°34' W 122°43'0 0.0
2017-Aug-24 10:30N 45°34' W 122°43'0 0.0
2017-Aug-24 10:00N 45°34' W 122°43'0 0.0
2017-Aug-24 09:30N 45°34' W 122°43'0 0.0
2017-Aug-24 09:00N 45°34' W 122°43'0 0.0
2017-Aug-24 08:27N 45°34' W 122°43'0 0.0
2017-Aug-24 08:00N 45°34' W 122°43'0 0.0
2017-Aug-24 07:24N 45°34' W 122°43'0 0.0
2017-Aug-24 07:00N 45°34' W 122°43'0 0.0
2017-Aug-24 06:30N 45°34' W 122°43'0 0.0
2017-Aug-24 06:00N 45°34' W 122°43'0 0.0
2017-Aug-24 05:24N 45°34' W 122°43'0 0.0
2017-Aug-24 05:00N 45°34' W 122°43'0 0.0
2017-Aug-24 04:30N 45°34' W 122°43'0 0.0
2017-Aug-24 04:00N 45°34' W 122°43'0 0.0
2017-Aug-24 03:30N 45°34' W 122°43'0 0.0
2017-Aug-24 03:00N 45°34' W 122°43'0 0.0
2017-Aug-24 02:30N 45°34' W 122°43'0 0.0
2017-Aug-24 02:00N 45°34' W 122°43'0 0.0
2017-Aug-24 01:30N 45°34' W 122°43'0 0.0
2017-Aug-24 01:00N 45°34' W 122°43'0 0.0
2017-Aug-24 00:30N 45°34' W 122°43'0 0.0
2017-Aug-24 00:00N 45°34' W 122°43'0 0.0
2017-Aug-23 23:30N 45°34' W 122°43'0 0.0
2017-Aug-23 23:00N 45°34' W 122°43'0 0.0
2017-Aug-23 22:30N 45°34' W 122°43'0 0.0
2017-Aug-23 22:00N 45°34' W 122°43'0 0.0
2017-Aug-23 21:30N 45°34' W 122°43'0 0.0
2017-Aug-23 21:00N 45°34' W 122°43'0 0.0
2017-Aug-23 20:30N 45°34' W 122°43'0 0.0
2017-Aug-23 20:00N 45°34' W 122°43'0 0.0
2017-Aug-23 19:30N 45°34' W 122°43'0 0.0
2017-Aug-23 19:00N 45°34' W 122°43'0 0.0
2017-Aug-23 18:30N 45°34' W 122°43'0 0.0
2017-Aug-23 18:00N 45°34' W 122°43'0 0.0
2017-Aug-23 17:24N 45°34' W 122°43'0 0.0
2017-Aug-23 17:00N 45°34' W 122°43'0 0.0
2017-Aug-23 16:30N 45°34' W 122°43'0 0.0
2017-Aug-23 16:00N 45°34' W 122°43'0 0.0
2017-Aug-23 15:30N 45°34' W 122°43'0 0.0
2017-Aug-23 15:00N 45°34' W 122°43'0 0.0
2017-Aug-23 14:00N 45°34' W 122°43'0 0.0
2017-Aug-23 13:30N 45°34' W 122°43'0 0.0
2017-Aug-23 13:00N 45°34' W 122°43'0 0.0
2017-Aug-23 12:30N 45°34' W 122°43'0 0.0
2017-Aug-23 12:00N 45°34' W 122°43'0 0.0
2017-Aug-23 11:30N 45°34' W 122°43'0 0.0
2017-Aug-23 11:00N 45°34' W 122°43'0 0.0
2017-Aug-23 10:30N 45°34' W 122°43'0 0.0
2017-Aug-23 10:00N 45°34' W 122°43'0 0.0
2017-Aug-23 09:30N 45°34' W 122°43'0 0.0
2017-Aug-23 09:00N 45°34' W 122°43'0 0.0
2017-Aug-23 08:30N 45°34' W 122°43'0 0.0
2017-Aug-23 08:00N 45°34' W 122°43'0 0.0
2017-Aug-23 07:30N 45°34' W 122°43'0 0.0
2017-Aug-23 07:00N 45°34' W 122°43'0 0.0
2017-Aug-23 06:30N 45°34' W 122°43'0 0.0
2017-Aug-23 05:57N 45°34' W 122°43'0 0.0
2017-Aug-23 05:30N 45°34' W 122°43'0 0.0
2017-Aug-23 05:00N 45°34' W 122°43'0 0.0
2017-Aug-23 04:30N 45°34' W 122°43'0 0.0
2017-Aug-23 04:00N 45°34' W 122°43'0 0.0
2017-Aug-23 03:27N 45°34' W 122°43'0 0.0
2017-Aug-23 03:00N 45°34' W 122°43'0 0.0
2017-Aug-23 02:30N 45°34' W 122°43'0 0.0
2017-Aug-23 02:00N 45°34' W 122°43'0 0.0
2017-Aug-23 01:27N 45°34' W 122°43'0 0.0
2017-Aug-23 00:57N 45°34' W 122°43'0 0.0
2017-Aug-23 00:27N 45°34' W 122°43'0 0.0
2017-Aug-22 23:54N 45°34' W 122°43'0 0.0
2017-Aug-22 23:24N 45°34' W 122°43'0 0.0
2017-Aug-22 23:00N 45°34' W 122°43'0 0.0
2017-Aug-22 22:24N 45°34' W 122°43'0 0.0
2017-Aug-22 22:00N 45°34' W 122°43'0 0.0
2017-Aug-22 21:27N 45°34' W 122°43'0 0.0
2017-Aug-22 20:51N 45°34' W 122°43'0 0.0
2017-Aug-22 20:21N 45°34' W 122°43'0 0.0
2017-Aug-22 19:57N 45°34' W 122°43'0 0.0
2017-Aug-22 19:30N 45°34' W 122°43'0 0.0
2017-Aug-22 19:00N 45°34' W 122°43'0 0.0
2017-Aug-22 18:30N 45°34' W 122°43'0 0.0
2017-Aug-22 17:54N 45°34' W 122°43'0 0.0
2017-Aug-22 17:30N 45°34' W 122°43'0 0.0
2017-Aug-22 16:57N 45°34' W 122°43'0 0.0
2017-Aug-22 16:30N 45°34' W 122°43'0 0.0
2017-Aug-22 15:57N 45°34' W 122°43'0 0.0
2017-Aug-22 15:27N 45°34' W 122°43'0 0.0
2017-Aug-22 14:51N 45°34' W 122°43'0 0.0
2017-Aug-22 14:30N 45°34' W 122°43'0 0.0
2017-Aug-22 14:00N 45°34' W 122°43'0 0.0
2017-Aug-22 13:30N 45°34' W 122°43'0 0.0
2017-Aug-22 13:00N 45°34' W 122°43'0 0.0
2017-Aug-22 12:30N 45°34' W 122°43'0 0.0
2017-Aug-22 11:54N 45°34' W 122°43'0 0.0
2017-Aug-22 11:30N 45°34' W 122°43'0 0.0
2017-Aug-22 11:00N 45°34' W 122°43'0 0.0
2017-Aug-22 10:30N 45°34' W 122°43'0 0.0
2017-Aug-22 09:57N 45°34' W 122°43'0 0.0
2017-Aug-22 09:30N 45°34' W 122°43'0 0.0
2017-Aug-22 09:00N 45°34' W 122°43'0 0.0
2017-Aug-22 08:30N 45°34' W 122°43'0 0.0
2017-Aug-22 08:00N 45°34' W 122°43'0 0.0
2017-Aug-22 07:30N 45°34' W 122°43'0 0.0
2017-Aug-22 07:00N 45°34' W 122°43'0 0.0
2017-Aug-22 06:30N 45°34' W 122°43'0 0.0
2017-Aug-22 06:00N 45°34' W 122°43'0 0.0
2017-Aug-22 05:30N 45°34' W 122°43'0 0.0
2017-Aug-22 05:00N 45°34' W 122°43'0 0.0
2017-Aug-22 04:24N 45°34' W 122°43'0 0.0
2017-Aug-22 04:00N 45°34' W 122°43'0 0.0
2017-Aug-22 03:24N 45°34' W 122°43'0 0.0
2017-Aug-22 03:00N 45°34' W 122°43'0 0.0
2017-Aug-22 02:27N 45°34' W 122°43'0 0.0
2017-Aug-22 02:00N 45°34' W 122°43'0 0.0
2017-Aug-22 01:30N 45°34' W 122°43'0 0.0
2017-Aug-22 01:00N 45°34' W 122°43'0 0.0
2017-Aug-22 00:30N 45°34' W 122°43'0 0.0
2017-Aug-21 23:54N 45°34' W 122°43'0 0.0
2017-Aug-21 23:30N 45°34' W 122°43'0 0.0
2017-Aug-21 22:51N 45°34' W 122°43'0 0.0
2017-Aug-21 22:30N 45°34' W 122°43'0 0.0
2017-Aug-21 21:57N 45°34' W 122°43'0 0.0
2017-Aug-21 21:30N 45°34' W 122°43'0 0.0
2017-Aug-21 20:57N 45°34' W 122°43'0 0.0
2017-Aug-21 20:27N 45°34' W 122°43'0 0.0
2017-Aug-21 20:00N 45°34' W 122°43'0 0.0
2017-Aug-21 19:30N 45°34' W 122°43'0 0.0
2017-Aug-21 18:57N 45°34' W 122°43'0 0.0
2017-Aug-21 18:30N 45°34' W 122°43'0 0.0
2017-Aug-21 18:00N 45°34' W 122°43'0 0.0
2017-Aug-21 17:24N 45°34' W 122°43'0 0.0
2017-Aug-21 16:57N 45°34' W 122°43'0 0.0
2017-Aug-21 16:21N 45°34' W 122°43'0 0.0
2017-Aug-21 16:00N 45°34' W 122°43'0 0.0
2017-Aug-21 15:30N 45°34' W 122°43'0 0.0
2017-Aug-21 14:51N 45°34' W 122°43'0 0.0
2017-Aug-21 14:30N 45°34' W 122°43'0 0.0
2017-Aug-21 14:00N 45°34' W 122°43'0 0.0
2017-Aug-21 13:24N 45°34' W 122°43'0 0.0
2017-Aug-21 13:00N 45°34' W 122°43'0 0.0
2017-Aug-21 12:27N 45°34' W 122°43'0 0.0
2017-Aug-21 11:51N 45°34' W 122°43'0 0.0
2017-Aug-21 11:30N 45°34' W 122°43'0 0.0
2017-Aug-21 10:54N 45°34' W 122°43'0 0.0
2017-Aug-21 10:27N 45°34' W 122°43'0 0.0
2017-Aug-21 09:54N 45°34' W 122°43'0 0.0
2017-Aug-21 09:30N 45°34' W 122°43'0 0.0
2017-Aug-21 08:51N 45°34' W 122°43'0 0.0
2017-Aug-21 08:21N 45°34' W 122°43'0 0.0
2017-Aug-21 07:51N 45°34' W 122°43'0 0.0
2017-Aug-21 07:30N 45°34' W 122°43'0 0.0
2017-Aug-21 07:00N 45°34' W 122°43'0 0.0
2017-Aug-21 06:24N 45°34' W 122°43'0 0.0
2017-Aug-21 06:00N 45°34' W 122°43'0 0.0
2017-Aug-21 05:12N 45°34' W 122°43'0 0.0
2017-Aug-21 04:51N 45°34' W 122°43'0 0.0
2017-Aug-21 04:30N 45°34' W 122°43'0 0.0
2017-Aug-21 03:54N 45°34' W 122°43'0 0.0
2017-Aug-21 03:27N 45°34' W 122°43'0 0.0
2017-Aug-21 02:54N 45°34' W 122°43'0 0.0
2017-Aug-21 02:30N 45°34' W 122°43'0 0.0
2017-Aug-21 01:57N 45°34' W 122°43'0 0.0
2017-Aug-21 01:30N 45°34' W 122°43'0 0.0
2017-Aug-21 01:00N 45°34' W 122°43'0 0.0
2017-Aug-21 00:30N 45°34' W 122°43'0 0.0
2017-Aug-20 23:51N 45°34' W 122°43'0 0.0
2017-Aug-20 23:27N 45°34' W 122°43'0 0.0
2017-Aug-20 23:00N 45°34' W 122°43'0 0.0
2017-Aug-20 22:30N 45°34' W 122°43'0 0.0
2017-Aug-20 21:57N 45°34' W 122°43'0 0.0
2017-Aug-20 21:24N 45°34' W 122°43'0 0.0
2017-Aug-20 20:51N 45°34' W 122°43'0 0.0
2017-Aug-20 20:30N 45°34' W 122°43'0 0.0
2017-Aug-20 19:57N 45°34' W 122°43'0 0.0
2017-Aug-20 19:30N 45°34' W 122°43'0 0.0
2017-Aug-20 19:00N 45°34' W 122°43'0 0.0
2017-Aug-20 18:30N 45°34' W 122°43'0 0.0
2017-Aug-20 17:54N 45°34' W 122°43'0 0.0
2017-Aug-20 17:30N 45°34' W 122°43'0 0.0
2017-Aug-20 17:00N 45°34' W 122°43'0 0.0
2017-Aug-20 16:30N 45°34' W 122°43'0 0.0
2017-Aug-20 16:00N 45°34' W 122°43'0 0.0
2017-Aug-20 15:27N 45°34' W 122°43'0 0.0
2017-Aug-20 15:00N 45°34' W 122°43'0 0.0
2017-Aug-20 14:27N 45°34' W 122°43'0 0.0
2017-Aug-20 13:57N 45°34' W 122°43'0 0.0
2017-Aug-20 13:30N 45°34' W 122°43'0 0.0
2017-Aug-20 13:00N 45°34' W 122°43'0 0.0
2017-Aug-20 12:24N 45°34' W 122°43'0 0.0
2017-Aug-20 12:00N 45°34' W 122°43'0 0.0
2017-Aug-20 11:27N 45°34' W 122°43'0 0.0
2017-Aug-20 11:00N 45°34' W 122°43'0 0.0
2017-Aug-20 10:30N 45°34' W 122°43'0 0.0
2017-Aug-20 09:57N 45°34' W 122°43'0 0.0
2017-Aug-20 09:30N 45°34' W 122°43'0 0.0
2017-Aug-20 09:00N 45°34' W 122°43'0 0.0
2017-Aug-20 08:27N 45°34' W 122°43'0 0.0
2017-Aug-20 08:00N 45°34' W 122°43'0 0.0
2017-Aug-20 07:30N 45°34' W 122°43'0 0.0
2017-Aug-20 07:00N 45°34' W 122°43'0 0.0
2017-Aug-20 06:30N 45°34' W 122°43'0 0.0
2017-Aug-20 06:00N 45°34' W 122°43'0 0.0
2017-Aug-20 05:27N 45°34' W 122°43'0 0.0
2017-Aug-20 04:57N 45°34' W 122°43'0 0.0
2017-Aug-20 04:27N 45°34' W 122°43'0 0.0
2017-Aug-20 04:00N 45°34' W 122°43'0 0.0
2017-Aug-20 03:30N 45°34' W 122°43'0 0.0
2017-Aug-20 03:00N 45°34' W 122°43'0 0.0
2017-Aug-20 02:27N 45°34' W 122°43'0 0.0
2017-Aug-20 02:00N 45°34' W 122°43'0 0.0
2017-Aug-20 01:30N 45°34' W 122°43'0 0.0
2017-Aug-20 00:57N 45°34' W 122°43'0 0.0
2017-Aug-20 00:30N 45°34' W 122°43'0 0.0
2017-Aug-19 23:57N 45°34' W 122°43'0 0.0
2017-Aug-19 23:30N 45°34' W 122°43'0 0.0
2017-Aug-19 22:57N 45°34' W 122°43'0 0.0
2017-Aug-19 22:27N 45°34' W 122°43'0 0.0
2017-Aug-19 21:54N 45°34' W 122°43'0 0.0
2017-Aug-19 21:30N 45°34' W 122°43'0 0.0
2017-Aug-19 20:51N 45°34' W 122°43'0 0.0
2017-Aug-19 20:24N 45°34' W 122°43'0 0.0
2017-Aug-19 20:00N 45°34' W 122°43'0 0.0
2017-Aug-19 19:30N 45°34' W 122°43'0 0.0
2017-Aug-19 19:00N 45°34' W 122°43'0 0.0
2017-Aug-19 18:30N 45°34' W 122°43'0 0.0
2017-Aug-19 18:00N 45°34' W 122°43'0 0.0
2017-Aug-19 17:30N 45°34' W 122°43'0 0.0
2017-Aug-19 17:00N 45°34' W 122°43'0 0.0
2017-Aug-19 16:30N 45°34' W 122°43'0 0.0
2017-Aug-19 16:00N 45°34' W 122°43'0 0.0
2017-Aug-19 15:30N 45°34' W 122°43'0 0.0
2017-Aug-19 15:00N 45°34' W 122°43'0 0.0
2017-Aug-19 14:00N 45°34' W 122°43'0 0.0
2017-Aug-19 13:30N 45°34' W 122°43'0 0.0
2017-Aug-19 13:00N 45°34' W 122°43'0 0.0
2017-Aug-19 12:30N 45°34' W 122°43'0 0.0
2017-Aug-19 12:00N 45°34' W 122°43'0 0.0
2017-Aug-19 11:30N 45°34' W 122°43'0 0.0
2017-Aug-19 11:00N 45°34' W 122°43'0 0.0
2017-Aug-19 10:30N 45°34' W 122°43'0 0.0
2017-Aug-19 10:00N 45°34' W 122°43'0 0.0
2017-Aug-19 09:30N 45°34' W 122°43'0 0.0
2017-Aug-19 09:00N 45°34' W 122°43'0 0.0
2017-Aug-19 08:30N 45°34' W 122°43'0 0.0
2017-Aug-19 08:00N 45°34' W 122°43'0 0.0
2017-Aug-19 07:30N 45°34' W 122°43'0 0.0
2017-Aug-19 07:00N 45°34' W 122°43'0 0.0
2017-Aug-19 06:30N 45°34' W 122°43'0 0.0
2017-Aug-19 06:00N 45°34' W 122°43'0 0.0
2017-Aug-19 05:30N 45°34' W 122°43'0 0.0
2017-Aug-19 05:00N 45°34' W 122°43'0 0.0
2017-Aug-19 04:30N 45°34' W 122°43'0 0.0
2017-Aug-19 04:00N 45°34' W 122°43'0 0.0
2017-Aug-19 03:30N 45°34' W 122°43'0 0.0
2017-Aug-19 03:00N 45°34' W 122°43'0 0.0
2017-Aug-19 02:30N 45°34' W 122°43'0 0.0
2017-Aug-19 02:00N 45°34' W 122°43'0 0.0
2017-Aug-19 01:30N 45°34' W 122°43'0 0.0
2017-Aug-19 01:00N 45°34' W 122°43'0 0.0
2017-Aug-19 00:30N 45°34' W 122°43'0 0.0
2017-Aug-19 00:00N 45°34' W 122°43'0 0.0
2017-Aug-18 23:30N 45°34' W 122°43'0 0.0
2017-Aug-18 23:00N 45°34' W 122°43'0 0.0
2017-Aug-18 22:24N 45°34' W 122°43'0 0.0
2017-Aug-18 22:00N 45°34' W 122°43'0 0.0
2017-Aug-18 21:30N 45°34' W 122°43'0 0.0
2017-Aug-18 21:00N 45°34' W 122°43'0 0.0
2017-Aug-18 20:30N 45°34' W 122°43'0 0.0
2017-Aug-18 20:00N 45°34' W 122°43'0 0.0
2017-Aug-18 19:30N 45°34' W 122°43'0 0.0
2017-Aug-18 19:00N 45°34' W 122°43'0 0.0
2017-Aug-18 18:30N 45°34' W 122°43'0 0.0
2017-Aug-18 18:00N 45°34' W 122°43'0 0.0
2017-Aug-18 17:30N 45°34' W 122°43'0 0.0
2017-Aug-18 17:00N 45°34' W 122°43'0 0.0
2017-Aug-18 16:30N 45°34' W 122°43'0 0.0
2017-Aug-18 16:00N 45°34' W 122°43'0 0.0
2017-Aug-18 15:30N 45°34' W 122°43'0 0.0
2017-Aug-18 15:00N 45°34' W 122°43'0 0.0
2017-Aug-18 14:00N 45°34' W 122°43'0 0.0
2017-Aug-18 13:30N 45°34' W 122°43'0 0.0
2017-Aug-18 13:00N 45°34' W 122°43'0 0.0
2017-Aug-18 12:30N 45°34' W 122°43'0 0.0
2017-Aug-18 11:57N 45°34' W 122°43'0 0.0
2017-Aug-18 11:30N 45°34' W 122°43'0 0.0
2017-Aug-18 11:00N 45°34' W 122°43'0 0.0
2017-Aug-18 10:24N 45°34' W 122°43'0 0.0
2017-Aug-18 10:00N 45°34' W 122°43'0 0.0
2017-Aug-18 09:30N 45°34' W 122°43'0 0.0
2017-Aug-18 08:57N 45°34' W 122°43'0 0.0
2017-Aug-18 08:27N 45°34' W 122°43'0 0.0
2017-Aug-18 08:00N 45°34' W 122°43'0 0.0
2017-Aug-18 07:27N 45°34' W 122°43'0 0.0
2017-Aug-18 06:57N 45°34' W 122°43'0 0.0
2017-Aug-18 06:30N 45°34' W 122°43'0 0.0
2017-Aug-18 06:00N 45°34' W 122°43'0 0.0
2017-Aug-18 05:30N 45°34' W 122°43'0 0.0
2017-Aug-18 04:57N 45°34' W 122°43'0 0.0
2017-Aug-18 04:06N 45°34' W 122°43'0 0.0
2017-Aug-18 03:12N 45°34' W 122°43'0 0.0
2017-Aug-18 03:00N 45°34' W 122°43'0 0.0
2017-Aug-18 02:27N 45°34' W 122°43'0 0.0
2017-Aug-18 01:51N 45°34' W 122°43'0 0.0
2017-Aug-18 01:30N 45°34' W 122°43'  

Dump ship's entire track history